Time;durP1;ratioP1;P1;durP2;ratioP2;P2;SDS_P1;SDS_P2;PMS_P1;PMS_P2;Temp;Humidity;BMP_temperature;BMP_pressure;BME280_temperature;BME280_humidity;BME280_pressure;Samples;Min_cycle;Max_cycle;Signal;HPM_P1;HPM_P2
2022/05/16 00:02:24;;;;;;;6.57;3.17;;;13.70;94.50;;;;;;4979076;28;20046;-87
2022/05/16 00:04:50;;;;;;;4.85;3.00;;;13.70;94.40;;;;;;5010709;28;20034;-87
2022/05/16 00:07:18;;;;;;;3.75;2.85;;;13.70;94.40;;;;;;5001642;28;20042;-87
2022/05/16 00:09:44;;;;;;;6.95;3.45;;;13.70;94.60;;;;;;4961302;28;20486;-87
2022/05/16 00:12:10;;;;;;;5.43;2.83;;;13.60;94.40;;;;;;4970464;28;20073;-88
2022/05/16 00:14:37;;;;;;;3.75;2.63;;;13.60;94.20;;;;;;4973744;28;20033;-87
2022/05/16 00:17:03;;;;;;;5.45;2.88;;;13.70;94.10;;;;;;4978940;28;20044;-88
2022/05/16 00:19:29;;;;;;;4.05;2.53;;;13.70;94.10;;;;;;5000958;28;20038;-87
2022/05/16 00:21:56;;;;;;;5.15;2.95;;;13.70;94.20;;;;;;4977167;28;20034;-87
2022/05/16 00:24:26;;;;;;;3.22;2.92;;;13.70;94.10;;;;;;4947726;28;20089;-86
2022/05/16 00:26:53;;;;;;;7.25;3.38;;;13.70;94.10;;;;;;4975581;28;20607;-86
2022/05/16 00:29:20;;;;;;;6.22;2.88;;;13.70;94.10;;;;;;4992259;28;20077;-87
2022/05/16 00:31:46;;;;;;;4.28;2.55;;;13.70;94.00;;;;;;4969062;28;20332;-86
2022/05/16 00:34:12;;;;;;;3.63;2.88;;;13.70;94.10;;;;;;4973178;28;20041;-87
2022/05/16 00:36:38;;;;;;;5.18;3.63;;;13.70;94.40;;;;;;4994267;28;20084;-87
2022/05/16 00:39:04;;;;;;;6.55;2.67;;;13.60;94.50;;;;;;4979815;28;20030;-87
2022/05/16 00:41:30;;;;;;;7.72;3.53;;;13.60;94.60;;;;;;4974256;28;20044;-87
2022/05/16 00:43:59;;;;;;;6.50;3.53;;;13.60;94.60;;;;;;4955737;28;20031;-87
2022/05/16 00:46:31;;;;;;;6.22;3.17;;;13.50;94.80;;;;;;4996303;28;20031;-87
2022/05/16 00:48:58;;;;;;;4.78;3.10;;;13.50;95.20;;;;;;5006292;28;20126;-86
2022/05/16 00:51:29;;;;;;;5.85;3.03;;;13.50;95.40;;;;;;4986926;28;20030;-87
2022/05/16 00:53:59;;;;;;;4.25;3.00;;;13.50;95.00;;;;;;4988529;28;20030;-86
2022/05/16 00:56:27;;;;;;;6.25;3.53;;;13.40;95.10;;;;;;4967745;28;20053;-88
2022/05/16 00:58:53;;;;;;;5.43;3.08;;;13.40;95.30;;;;;;4978452;28;20580;-86
2022/05/16 01:06:52;;;;;;;5.85;3.13;;;13.30;95.90;;;;;;4983506;28;20037;-86
2022/05/16 01:09:17;;;;;;;5.05;2.90;;;13.30;96.00;;;;;;4990192;28;20129;-87
2022/05/16 01:11:43;;;;;;;5.82;2.88;;;13.30;95.90;;;;;;4984887;28;20113;-87
2022/05/16 01:14:09;;;;;;;3.83;3.17;;;13.20;95.90;;;;;;4980026;28;20043;-86
2022/05/16 01:16:35;;;;;;;5.60;3.22;;;13.20;95.90;;;;;;4994534;28;20043;-87
2022/05/16 01:19:01;;;;;;;4.35;3.33;;;13.20;96.10;;;;;;4976027;28;20034;-88
2022/05/16 01:21:40;;;;;;;3.55;2.78;;;13.20;96.10;;;;;;4961542;28;20081;-87
2022/05/16 01:24:13;;;;;;;6.43;2.83;;;13.10;96.30;;;;;;4990074;28;20109;-87
2022/05/16 01:26:40;;;;;;;4.82;3.92;;;13.10;96.50;;;;;;4986052;28;20146;-87
2022/05/16 01:29:07;;;;;;;9.43;3.42;;;13.10;97.30;;;;;;4979804;28;20088;-87
2022/05/16 01:31:33;;;;;;;4.75;2.85;;;13.00;97.30;;;;;;4965392;28;20038;-87
2022/05/16 01:34:00;;;;;;;4.50;3.08;;;13.00;97.50;;;;;;4995981;28;20585;-88
2022/05/16 01:36:25;;;;;;;8.40;3.25;;;13.00;97.10;;;;;;4985776;28;20050;-86
2022/05/16 01:38:52;;;;;;;7.15;3.15;;;12.90;97.20;;;;;;4988605;28;20430;-87
2022/05/16 01:41:22;;;;;;;6.25;3.03;;;12.90;97.40;;;;;;4955609;28;20122;-87
2022/05/16 01:43:57;;;;;;;6.45;3.67;;;12.90;97.60;;;;;;4950527;28;20041;-87
2022/05/16 01:46:26;;;;;;;9.05;3.75;;;12.80;97.80;;;;;;4954788;28;20031;-87
2022/05/16 01:48:52;;;;;;;6.28;3.47;;;12.80;98.10;;;;;;4983572;28;20500;-88
2022/05/16 01:51:19;;;;;;;7.28;3.17;;;12.70;98.00;;;;;;4981029;28;20529;-87
2022/05/16 01:53:45;;;;;;;11.93;3.58;;;12.80;97.80;;;;;;4979868;28;20041;-88
2022/05/16 01:56:12;;;;;;;7.68;3.38;;;12.70;98.00;;;;;;4975173;28;20030;-87
2022/05/16 01:58:38;;;;;;;4.60;2.83;;;12.70;98.00;;;;;;4962945;28;20065;-86
2022/05/16 02:01:04;;;;;;;5.22;3.70;;;12.70;98.20;;;;;;4982085;28;20026;-88
2022/05/16 02:03:30;;;;;;;4.63;3.15;;;12.70;98.30;;;;;;4993079;28;20035;-87
2022/05/16 02:05:56;;;;;;;4.85;3.40;;;12.70;98.20;;;;;;4977365;28;20056;-86
2022/05/16 02:08:22;;;;;;;4.90;3.08;;;12.70;98.10;;;;;;4986459;28;20062;-87
2022/05/16 02:10:48;;;;;;;7.97;3.40;;;12.70;98.40;;;;;;4977026;28;20057;-86
2022/05/16 02:13:14;;;;;;;5.88;3.45;;;12.70;99.10;;;;;;4976911;28;20042;-86
2022/05/16 02:15:43;;;;;;;5.18;3.42;;;12.70;99.40;;;;;;4964686;28;20076;-87
2022/05/16 02:18:09;;;;;;;5.53;3.60;;;12.60;99.40;;;;;;4995813;28;20037;-87
2022/05/16 02:20:36;;;;;;;4.25;3.50;;;12.60;99.50;;;;;;4990107;28;20033;-88
2022/05/16 02:25:50;;;;;;;6.15;3.50;;;12.60;99.90;;;;;;4993590;28;20035;-88
2022/05/16 02:28:18;;;;;;;6.82;4.10;;;12.60;99.90;;;;;;4993240;28;20582;-88
2022/05/16 02:30:45;;;;;;;8.77;3.88;;;12.60;99.90;;;;;;4989841;28;20039;-88
2022/05/16 02:33:13;;;;;;;6.80;3.38;;;12.60;99.90;;;;;;4983549;28;20030;-87
2022/05/16 02:35:39;;;;;;;7.57;3.28;;;12.60;99.90;;;;;;4989776;28;20038;-87
2022/05/16 02:38:07;;;;;;;8.38;3.70;;;12.60;99.90;;;;;;4984523;28;20038;-87
2022/05/16 02:40:35;;;;;;;7.25;3.42;;;12.60;99.90;;;;;;4999765;28;20393;-87
2022/05/16 02:43:01;;;;;;;7.20;4.03;;;12.60;99.70;;;;;;4973136;28;20039;-87
2022/05/16 02:45:28;;;;;;;5.03;3.30;;;12.60;99.60;;;;;;4987041;28;20040;-87
2022/05/16 02:47:54;;;;;;;4.88;3.40;;;12.50;99.60;;;;;;5005797;28;20251;-87
2022/05/16 02:50:23;;;;;;;5.75;3.47;;;12.50;99.90;;;;;;4993301;28;20448;-89
2022/05/16 02:52:49;;;;;;;8.73;3.72;;;12.50;99.90;;;;;;4991634;28;20045;-87
2022/05/16 02:55:15;;;;;;;5.18;3.53;;;12.50;99.90;;;;;;4959744;28;20405;-87
2022/05/16 02:57:41;;;;;;;5.38;3.40;;;12.50;99.90;;;;;;4969737;28;20030;-87
2022/05/16 03:00:08;;;;;;;5.40;3.47;;;12.50;99.90;;;;;;4992266;28;20037;-86
2022/05/16 03:02:35;;;;;;;3.42;3.13;;;12.50;99.90;;;;;;4986057;28;20034;-87
2022/05/16 03:05:01;;;;;;;4.18;3.20;;;12.50;99.90;;;;;;5008350;28;20477;-87
2022/05/16 03:07:27;;;;;;;4.85;3.33;;;12.50;99.90;;;;;;4971942;28;20068;-86
2022/05/16 03:09:53;;;;;;;4.38;3.00;;;12.50;99.90;;;;;;4978415;28;20039;-87
2022/05/16 03:12:18;;;;;;;5.03;3.50;;;12.50;99.90;;;;;;4972821;28;20062;-88
2022/05/16 03:14:44;;;;;;;5.68;3.50;;;12.50;99.90;;;;;;4994695;28;20030;-88
2022/05/16 03:17:10;;;;;;;4.78;2.97;;;12.50;99.80;;;;;;4983343;28;20101;-87
2022/05/16 03:19:36;;;;;;;6.07;3.30;;;12.50;99.80;;;;;;4980152;28;20026;-87
2022/05/16 03:22:06;;;;;;;4.93;3.53;;;12.50;99.90;;;;;;4987606;28;20840;-87
2022/05/16 03:24:32;;;;;;;3.72;3.28;;;12.50;99.90;;;;;;4973277;28;20027;-87
2022/05/16 03:26:59;;;;;;;5.40;3.17;;;12.50;99.90;;;;;;4988171;28;20584;-87
2022/05/16 03:29:25;;;;;;;7.20;3.85;;;12.50;99.90;;;;;;4983059;28;20034;-88
2022/05/16 03:31:51;;;;;;;9.05;3.90;;;12.50;99.90;;;;;;4977241;28;20428;-87
2022/05/16 03:34:17;;;;;;;5.28;3.63;;;12.50;99.90;;;;;;5003266;28;20088;-87
2022/05/16 03:36:43;;;;;;;7.10;3.90;;;12.40;99.90;;;;;;4959096;28;20039;-86
2022/05/16 03:41:53;;;;;;;6.55;3.55;;;12.40;99.90;;;;;;4972667;28;20054;-87
2022/05/16 03:44:20;;;;;;;5.78;3.50;;;12.40;99.90;;;;;;4976396;28;20485;-87
2022/05/16 03:46:46;;;;;;;7.03;3.55;;;12.40;99.90;;;;;;4980929;28;20637;-87
2022/05/16 03:49:12;;;;;;;5.03;3.33;;;12.40;99.90;;;;;;4984858;28;20142;-88
2022/05/16 03:51:38;;;;;;;7.22;3.40;;;12.40;99.90;;;;;;4975784;28;20038;-87
2022/05/16 03:54:05;;;;;;;5.60;3.33;;;12.40;99.90;;;;;;4974259;28;20065;-88
2022/05/16 03:56:34;;;;;;;7.47;3.97;;;12.40;99.90;;;;;;4962272;28;20378;-88
2022/05/16 03:59:00;;;;;;;5.05;3.67;;;12.40;99.90;;;;;;4932148;28;20038;-87
2022/05/16 04:01:27;;;;;;;7.00;4.15;;;12.40;99.90;;;;;;4964560;28;20023;-87
2022/05/16 04:03:53;;;;;;;7.45;4.05;;;12.40;99.90;;;;;;4972222;28;20027;-88
2022/05/16 04:06:20;;;;;;;11.93;4.28;;;12.40;99.90;;;;;;4992099;28;20033;-87
2022/05/16 04:08:46;;;;;;;6.50;3.58;;;12.40;99.90;;;;;;4996266;28;20030;-87
2022/05/16 04:11:17;;;;;;;8.07;3.67;;;12.50;99.90;;;;;;4961084;28;20030;-87
2022/05/16 04:13:44;;;;;;;6.45;3.45;;;12.50;99.90;;;;;;4994689;28;20034;-87
2022/05/16 04:16:10;;;;;;;5.70;3.55;;;12.50;99.90;;;;;;4999597;28;20407;-87
2022/05/16 04:18:36;;;;;;;9.85;3.97;;;12.50;99.90;;;;;;5004207;28;20030;-88
2022/05/16 04:21:04;;;;;;;12.10;7.72;;;12.50;99.90;;;;;;4971314;28;20034;-88
2022/05/16 04:23:30;;;;;;;9.93;6.10;;;12.50;99.90;;;;;;4980132;28;20353;-88
2022/05/16 04:25:55;;;;;;;10.88;5.80;;;12.50;99.90;;;;;;4989975;28;20034;-87
2022/05/16 04:28:22;;;;;;;6.38;5.05;;;12.50;99.90;;;;;;4982706;28;20062;-88
2022/05/16 04:30:48;;;;;;;11.65;5.60;;;12.50;99.90;;;;;;4974154;28;20042;-89
2022/05/16 04:33:17;;;;;;;8.63;4.80;;;12.50;99.90;;;;;;4998272;28;20477;-88
2022/05/16 04:35:43;;;;;;;13.23;4.53;;;12.50;99.90;;;;;;4984747;28;20045;-88
2022/05/16 04:38:09;;;;;;;7.35;4.13;;;12.40;99.90;;;;;;4969478;28;20124;-88
2022/05/16 04:42:40;;;;;;;11.25;3.70;;;12.50;99.90;;;;;;4960998;28;20122;-87
2022/05/16 04:43:21;;;;;;;;;;;12.50;99.90;;;;;;4975833;28;20128;-88
2022/05/16 04:45:46;;;;;;;;;;;12.50;99.90;;;;;;4991169;28;19997;-88
2022/05/16 04:48:12;;;;;;;4.60;3.03;;;12.60;99.90;;;;;;5006102;28;19909;-87
2022/05/16 04:50:38;;;;;;;8.20;3.42;;;12.60;99.90;;;;;;4975680;28;20042;-89
2022/05/16 04:53:03;;;;;;;6.80;3.58;;;12.70;99.90;;;;;;4979035;28;20042;-88
2022/05/16 04:55:30;;;;;;;9.52;3.20;;;12.70;99.90;;;;;;4964047;28;20043;-86
2022/05/16 04:57:57;;;;;;;7.70;3.72;;;12.80;99.90;;;;;;4969891;28;20031;-88
2022/05/16 05:00:24;;;;;;;7.00;3.60;;;12.90;99.90;;;;;;5005254;28;20038;-88
2022/05/16 05:02:50;;;;;;;10.23;4.63;;;13.00;99.90;;;;;;4959397;28;20039;-87
2022/05/16 05:05:16;;;;;;;8.20;3.90;;;13.30;99.90;;;;;;4973902;28;20118;-88
2022/05/16 05:07:43;;;;;;;11.20;3.92;;;13.50;99.90;;;;;;4988034;28;20027;-87
2022/05/16 05:15:41;;;;;;;9.18;3.60;;;14.20;99.30;;;;;;4999654;28;20089;-88
2022/05/16 05:18:07;;;;;;;5.65;3.15;;;14.30;99.50;;;;;;4975184;28;20041;-89
2022/05/16 05:20:34;;;;;;;7.75;4.05;;;14.50;99.00;;;;;;4955473;28;20042;-88
2022/05/16 05:23:01;;;;;;;5.57;3.05;;;14.60;98.60;;;;;;4971404;28;20113;-88
2022/05/16 05:25:27;;;;;;;8.38;3.30;;;14.70;99.00;;;;;;4955125;28;20691;-88
2022/05/16 05:27:53;;;;;;;12.48;3.95;;;14.80;99.10;;;;;;4970879;28;20189;-87
2022/05/16 05:30:22;;;;;;;5.05;3.08;;;14.90;99.50;;;;;;4978895;28;20074;-88
2022/05/16 05:32:48;;;;;;;5.80;2.88;;;15.00;99.30;;;;;;4961286;28;20093;-88
2022/05/16 05:35:15;;;;;;;6.22;3.25;;;15.00;99.40;;;;;;4986823;28;20038;-87
2022/05/16 05:37:41;;;;;;;5.93;3.33;;;15.20;97.30;;;;;;4978806;28;20034;-87
2022/05/16 05:40:08;;;;;;;4.03;2.55;;;15.40;95.80;;;;;;5002912;28;20035;-88
2022/05/16 05:42:34;;;;;;;3.00;2.70;;;15.70;96.10;;;;;;4974640;28;20088;-88
2022/05/16 05:45:01;;;;;;;6.32;3.00;;;16.20;97.60;;;;;;4989966;28;20042;-87
2022/05/16 05:47:27;;;;;;;6.90;3.08;;;16.80;95.70;;;;;;4996473;28;20113;-87
2022/05/16 05:49:53;;;;;;;4.55;2.47;;;17.40;95.40;;;;;;4989852;28;20045;-87
2022/05/16 05:52:20;;;;;;;12.05;3.05;;;17.80;94.90;;;;;;4972795;28;20042;-87
2022/05/16 05:54:47;;;;;;;8.90;3.42;;;18.10;92.30;;;;;;4973673;28;20061;-89
2022/05/16 05:57:13;;;;;;;9.30;3.53;;;18.20;90.50;;;;;;4992283;28;20037;-86
2022/05/16 05:59:39;;;;;;;8.13;2.75;;;18.20;90.20;;;;;;4984709;28;20030;-86
2022/05/16 06:02:07;;;;;;;6.85;3.20;;;18.40;89.90;;;;;;5000197;28;20031;-87
2022/05/16 06:04:33;;;;;;;3.83;2.78;;;18.70;87.30;;;;;;4982732;28;20129;-87
2022/05/16 06:07:00;;;;;;;4.75;2.80;;;19.10;84.40;;;;;;4958760;28;20113;-88
2022/05/16 06:09:27;;;;;;;7.05;3.00;;;19.20;82.30;;;;;;4981986;28;20038;-86
2022/05/16 06:11:53;;;;;;;7.18;2.65;;;19.50;81.90;;;;;;4994239;28;20095;-87
2022/05/16 06:14:19;;;;;;;5.07;2.70;;;19.70;79.20;;;;;;4993922;28;20029;-87
2022/05/16 06:16:45;;;;;;;5.38;2.60;;;19.80;78.00;;;;;;4976485;28;20042;-87
2022/05/16 06:19:11;;;;;;;4.60;2.47;;;20.00;76.50;;;;;;4977803;28;20662;-86
2022/05/16 06:21:37;;;;;;;6.45;2.78;;;20.10;75.80;;;;;;4957913;28;20035;-88
2022/05/16 06:24:03;;;;;;;5.32;2.78;;;20.30;75.50;;;;;;4981404;28;20033;-86
2022/05/16 06:26:29;;;;;;;4.07;2.45;;;20.60;74.40;;;;;;4973540;28;20397;-87
2022/05/16 06:28:58;;;;;;;6.03;2.67;;;20.90;72.50;;;;;;4973487;28;20025;-87
2022/05/16 06:31:23;;;;;;;3.38;2.35;;;21.10;73.30;;;;;;4973304;28;20038;-87
2022/05/16 06:33:50;;;;;;;4.30;2.30;;;21.30;72.10;;;;;;4973576;28;20370;-87
2022/05/16 06:36:16;;;;;;;4.10;2.17;;;21.20;68.80;;;;;;4976651;28;20414;-89
2022/05/16 06:38:42;;;;;;;7.57;2.83;;;20.80;69.70;;;;;;4979786;28;20038;-88
2022/05/16 06:41:08;;;;;;;4.50;2.33;;;20.50;71.10;;;;;;4987056;28;20126;-87
2022/05/16 06:43:35;;;;;;;4.32;2.60;;;20.40;74.00;;;;;;4985928;28;20030;-89
2022/05/16 06:46:04;;;;;;;4.30;2.63;;;20.40;72.70;;;;;;4971794;28;20718;-88
2022/05/16 06:48:30;;;;;;;5.95;2.70;;;20.40;73.50;;;;;;4975209;28;20042;-89
2022/05/16 06:50:56;;;;;;;3.88;3.08;;;20.40;73.90;;;;;;4979107;28;20511;-87
2022/05/16 06:53:29;;;;;;;3.70;2.50;;;20.30;73.30;;;;;;4978692;28;20093;-88
2022/05/16 06:55:57;;;;;;;5.93;2.58;;;20.20;74.60;;;;;;4995218;28;20050;-88
2022/05/16 06:58:24;;;;;;;3.35;2.60;;;20.10;73.40;;;;;;5000520;28;20041;-87
2022/05/16 07:00:50;;;;;;;4.72;2.88;;;20.00;76.40;;;;;;5001975;28;20077;-87
2022/05/16 07:03:16;;;;;;;3.40;2.70;;;19.90;73.70;;;;;;4984552;28;20010;-88
2022/05/16 07:05:43;;;;;;;4.47;2.42;;;19.90;74.00;;;;;;5003059;28;20471;-87
2022/05/16 07:08:08;;;;;;;4.00;2.60;;;20.00;73.90;;;;;;4988866;28;20068;-87
2022/05/16 07:10:34;;;;;;;5.90;2.88;;;20.00;75.30;;;;;;4979069;28;20034;-87
2022/05/16 07:13:00;;;;;;;4.70;2.55;;;19.80;72.50;;;;;;4977347;28;20129;-88
2022/05/16 07:15:26;;;;;;;4.50;2.72;;;19.80;74.50;;;;;;4957615;28;20034;-87
2022/05/16 07:17:52;;;;;;;4.65;3.17;;;19.70;74.80;;;;;;4966378;28;20448;-87
2022/05/16 07:20:18;;;;;;;5.97;2.75;;;19.60;77.50;;;;;;4997774;28;20058;-87
2022/05/16 07:22:46;;;;;;;4.15;2.85;;;19.60;78.30;;;;;;4992427;28;20481;-89
2022/05/16 07:25:14;;;;;;;5.85;3.00;;;19.50;77.00;;;;;;4968454;28;20034;-88
2022/05/16 07:27:59;;;;;;;5.45;2.85;;;19.60;77.00;;;;;;5001082;28;20528;-87
2022/05/16 07:30:31;;;;;;;4.63;2.97;;;19.60;77.60;;;;;;4967743;28;20397;-87
2022/05/16 07:32:58;;;;;;;6.40;3.28;;;19.80;77.70;;;;;;4991635;28;20035;-88
2022/05/16 07:35:30;;;;;;;4.63;3.10;;;19.90;77.10;;;;;;4965485;28;20129;-87
2022/05/16 07:37:56;;;;;;;6.38;2.90;;;19.90;78.30;;;;;;4991660;28;20035;-87
2022/05/16 07:40:25;;;;;;;6.13;3.40;;;20.10;77.50;;;;;;4959380;28;20561;-87
2022/05/16 07:42:52;;;;;;;4.13;3.08;;;20.30;76.20;;;;;;4958915;28;20544;-87
2022/05/16 07:45:19;;;;;;;5.00;2.78;;;20.50;77.70;;;;;;4956246;28;20023;-87
2022/05/16 07:47:44;;;;;;;3.83;2.42;;;20.70;75.40;;;;;;4964387;28;20031;-87
2022/05/16 07:50:11;;;;;;;3.70;2.53;;;20.80;73.50;;;;;;4958095;28;20177;-87
2022/05/16 07:52:38;;;;;;;7.35;3.08;;;20.90;71.90;;;;;;4974123;28;20406;-86
2022/05/16 07:55:04;;;;;;;5.95;2.95;;;21.10;73.50;;;;;;4967075;28;20053;-86
2022/05/16 07:57:30;;;;;;;5.45;2.63;;;21.30;71.70;;;;;;4991144;28;20038;-88
2022/05/16 07:59:56;;;;;;;7.00;2.72;;;21.20;72.40;;;;;;4992781;28;20033;-86
2022/05/16 08:02:22;;;;;;;4.90;2.80;;;21.20;71.60;;;;;;4966856;28;20038;-87
2022/05/16 08:04:48;;;;;;;4.80;2.67;;;21.00;73.80;;;;;;4941723;28;20433;-86
2022/05/16 08:07:14;;;;;;;4.45;3.03;;;21.00;72.90;;;;;;4988930;28;20102;-87
2022/05/16 08:12:27;;;;;;;7.50;2.63;;;21.50;75.90;;;;;;4977929;28;20039;-87
2022/05/16 08:14:54;;;;;;;5.47;2.35;;;21.70;73.10;;;;;;4978708;28;20030;-87
2022/05/16 08:17:20;;;;;;;6.90;2.85;;;21.90;72.90;;;;;;4981260;28;20057;-87
2022/05/16 08:19:46;;;;;;;6.10;2.50;;;22.10;72.20;;;;;;4975589;28;20531;-88
2022/05/16 08:22:13;;;;;;;4.90;3.03;;;22.10;69.70;;;;;;4980298;28;20101;-90
2022/05/16 08:24:41;;;;;;;6.28;2.55;;;22.30;71.70;;;;;;4982582;28;20031;-87
2022/05/16 08:27:08;;;;;;;4.32;2.90;;;22.50;71.90;;;;;;4974858;28;20057;-88
2022/05/16 08:29:34;;;;;;;4.82;2.63;;;22.60;69.60;;;;;;4968137;28;20042;-88
2022/05/16 08:32:00;;;;;;;5.35;2.88;;;22.60;69.80;;;;;;4991784;28;20058;-88
2022/05/16 08:34:26;;;;;;;4.43;2.80;;;22.60;72.60;;;;;;4961898;28;20501;-85
2022/05/16 08:42:26;;;;;;;4.53;2.72;;;22.40;70.00;;;;;;4992992;28;20034;-86
2022/05/16 08:45:01;;;;;;;4.80;2.75;;;22.30;71.80;;;;;;4990397;28;20026;-87
2022/05/16 08:48:01;;;;;;;6.88;2.58;;;22.30;70.50;;;;;;4977428;28;20046;-88
2022/05/16 08:50:49;;;;;;;3.00;2.47;;;22.40;71.80;;;;;;5001592;28;20034;-88
2022/05/16 08:53:38;;;;;;;5.25;2.97;;;22.60;70.30;;;;;;4990409;28;20042;-86
2022/05/16 08:56:08;;;;;;;3.75;2.35;;;22.80;69.30;;;;;;4990093;28;20030;-88
2022/05/16 08:58:46;;;;;;;4.25;2.28;;;22.90;73.10;;;;;;4962675;28;20030;-88
2022/05/16 09:01:22;;;;;;;4.78;2.22;;;23.00;70.90;;;;;;4961371;28;20413;-85
2022/05/16 09:03:53;;;;;;;4.10;2.08;;;23.00;67.30;;;;;;4963476;28;20053;-87
2022/05/16 09:06:25;;;;;;;9.90;4.13;;;23.00;66.90;;;;;;4947918;28;20061;-88
2022/05/16 09:09:14;;;;;;;6.15;2.50;;;23.00;66.90;;;;;;4974245;28;21187;-87
2022/05/16 09:12:04;;;;;;;2.60;2.00;;;23.00;66.00;;;;;;4990231;28;20113;-88
2022/05/16 09:14:43;;;;;;;6.57;2.65;;;23.20;67.90;;;;;;4990746;28;20029;-87
2022/05/16 09:17:28;;;;;;;3.08;2.33;;;23.40;65.30;;;;;;4984354;28;20110;-87
2022/05/16 09:19:53;;;;;;;4.20;2.35;;;23.50;66.20;;;;;;4999974;28;20076;-86
2022/05/16 09:22:38;;;;;;;11.32;3.67;;;23.70;69.90;;;;;;4997865;28;20019;-84
2022/05/16 09:25:17;;;;;;;4.35;2.13;;;23.90;69.60;;;;;;4961006;28;20030;-86
2022/05/16 09:30:32;;;;;;;4.40;2.30;;;24.20;70.20;;;;;;4981988;28;20065;-85
2022/05/16 09:33:20;;;;;;;2.22;2.03;;;24.30;66.50;;;;;;4973224;28;20069;-85
2022/05/16 09:36:08;;;;;;;7.03;2.42;;;24.30;68.00;;;;;;4969672;28;20485;-85
2022/05/16 09:38:34;;;;;;;4.45;2.42;;;24.40;61.90;;;;;;4940913;28;20038;-85
2022/05/16 09:41:01;;;;;;;6.07;2.42;;;24.40;60.90;;;;;;4953190;28;20042;-86
2022/05/16 09:44:03;;;;;;;9.40;2.67;;;24.10;59.30;;;;;;4971383;28;20033;-85
2022/05/16 09:46:32;;;;;;;3.80;2.22;;;24.00;64.60;;;;;;4972412;28;20409;-86
2022/05/16 09:49:15;;;;;;;4.63;2.10;;;24.00;60.90;;;;;;4964755;28;20055;-86
2022/05/16 09:51:51;;;;;;;3.22;2.33;;;24.00;64.90;;;;;;4978449;28;20031;-87
2022/05/16 09:54:31;;;;;;;2.50;1.80;;;24.20;69.20;;;;;;4984170;28;20106;-87
2022/05/16 09:57:03;;;;;;;3.50;2.45;;;24.30;68.20;;;;;;4955578;28;20084;-85
2022/05/16 09:59:43;;;;;;;12.00;2.40;;;24.40;66.80;;;;;;4996971;28;20041;-88
2022/05/16 10:02:27;;;;;;;2.72;2.28;;;24.50;64.50;;;;;;4998508;28;20041;-88
2022/05/16 10:05:02;;;;;;;4.53;2.15;;;24.50;63.20;;;;;;4951574;28;20030;-85
2022/05/16 10:07:43;;;;;;;2.95;1.83;;;24.40;67.20;;;;;;4972567;28;20026;-86
2022/05/16 10:10:14;;;;;;;3.40;2.20;;;24.30;68.80;;;;;;4984933;28;20040;-86
2022/05/16 10:12:41;;;;;;;2.53;2.13;;;24.20;66.40;;;;;;4971376;28;20042;-88
2022/05/16 10:15:09;;;;;;;2.75;1.80;;;24.10;67.10;;;;;;4938527;28;20099;-86
2022/05/16 10:17:38;;;;;;;3.83;2.25;;;23.90;67.10;;;;;;4979919;28;20708;-88
2022/05/16 10:20:25;;;;;;;2.60;2.30;;;23.80;68.10;;;;;;4975664;28;20042;-87
2022/05/16 10:22:58;;;;;;;2.67;1.88;;;23.60;68.40;;;;;;4981693;28;20070;-85
2022/05/16 10:25:32;;;;;;;3.08;2.10;;;23.40;69.00;;;;;;4994317;28;20056;-88
2022/05/16 10:27:58;;;;;;;2.40;1.75;;;23.10;69.00;;;;;;4972719;28;20030;-85
2022/05/16 10:30:27;;;;;;;4.57;1.90;;;22.80;70.30;;;;;;4957910;28;20030;-86
2022/05/16 10:35:55;;;;;;;6.78;2.88;;;22.10;83.90;;;;;;4959032;28;20030;-87
2022/05/16 10:38:56;;;;;;;3.72;2.72;;;21.50;88.60;;;;;;4994772;28;20076;-88
2022/05/16 10:41:31;;;;;;;5.45;2.50;;;21.10;90.40;;;;;;4961951;28;20073;-86
2022/05/16 10:44:42;;;;;;;3.72;2.50;;;20.70;91.10;;;;;;4981543;28;20034;-87
2022/05/16 10:47:29;;;;;;;2.67;2.42;;;20.50;92.30;;;;;;4947812;28;20096;-88
2022/05/16 10:50:11;;;;;;;4.82;2.42;;;20.30;94.50;;;;;;4988853;28;20057;-86
2022/05/16 10:52:43;;;;;;;2.40;2.03;;;20.20;94.10;;;;;;4991359;28;20520;-86
2022/05/16 10:55:10;;;;;;;2.78;2.03;;;20.20;94.80;;;;;;4964218;28;20562;-87
2022/05/16 10:58:07;;;;;;;2.92;2.65;;;20.20;91.40;;;;;;4979440;28;20026;-88
2022/05/16 11:01:03;;;;;;;5.22;2.67;;;20.30;95.10;;;;;;4983318;28;20109;-87
2022/05/16 11:03:56;;;;;;;3.72;2.63;;;20.40;96.30;;;;;;4997216;28;20022;-87
2022/05/16 11:06:49;;;;;;;5.63;2.42;;;20.70;96.30;;;;;;4980558;28;20042;-86
2022/05/16 11:09:42;;;;;;;4.70;2.58;;;20.90;95.70;;;;;;4994208;28;20125;-87
2022/05/16 11:12:24;;;;;;;4.72;2.63;;;21.30;96.00;;;;;;4990902;28;20082;-88
2022/05/16 11:15:05;;;;;;;6.28;2.08;;;21.60;95.30;;;;;;4979139;28;20149;-89
2022/05/16 11:17:44;;;;;;;4.07;2.13;;;21.80;93.50;;;;;;4976005;28;20125;-88
2022/05/16 11:20:32;;;;;;;2.50;2.30;;;21.90;92.20;;;;;;4972077;28;20084;-88
2022/05/16 11:23:19;;;;;;;9.52;2.70;;;22.10;93.10;;;;;;4994961;28;20034;-86
2022/05/16 11:26:12;;;;;;;4.22;3.25;;;22.10;93.60;;;;;;4990742;28;20026;-87
2022/05/16 11:29:17;;;;;;;6.13;2.35;;;22.10;89.60;;;;;;4982814;28;20110;-85
2022/05/16 11:31:42;;;;;;;5.45;2.38;;;22.10;91.90;;;;;;4973355;28;20065;-88
2022/05/16 11:34:19;;;;;;;2.80;2.00;;;22.20;90.30;;;;;;4983240;28;20407;-86
2022/05/16 11:36:51;;;;;;;2.70;2.50;;;22.20;90.10;;;;;;4999002;28;20045;-86
2022/05/16 11:39:34;;;;;;;4.53;2.97;;;22.30;88.70;;;;;;4977258;28;20030;-84
2022/05/16 11:42:26;;;;;;;3.28;2.63;;;22.50;91.10;;;;;;4975523;28;20053;-84
2022/05/16 11:45:07;;;;;;;3.30;2.40;;;22.70;81.20;;;;;;4981893;28;20029;-85
2022/05/16 11:47:36;;;;;;;4.00;2.55;;;22.70;85.80;;;;;;5000865;28;20033;-85
2022/05/16 11:50:07;;;;;;;3.75;2.65;;;22.70;85.70;;;;;;4986925;28;20026;-86
2022/05/16 11:53:04;;;;;;;3.13;2.38;;;22.90;83.90;;;;;;4985157;28;20034;-85
2022/05/16 12:01:32;;;;;;;3.95;2.50;;;23.00;89.80;;;;;;4996929;28;20057;-85
2022/05/16 12:04:15;;;;;;;5.40;2.30;;;23.10;90.30;;;;;;4980668;28;20026;-84
2022/05/16 12:06:50;;;;;;;3.70;2.70;;;23.10;91.40;;;;;;4997046;28;20038;-85
2022/05/16 12:09:31;;;;;;;2.70;2.50;;;23.20;91.10;;;;;;4966605;28;20133;-84
2022/05/16 12:12:02;;;;;;;2.60;2.40;;;23.30;90.80;;;;;;4995600;28;20059;-85
2022/05/16 12:14:32;;;;;;;4.18;2.70;;;23.50;89.50;;;;;;4998051;28;20033;-85
2022/05/16 12:17:19;;;;;;;3.95;2.63;;;23.60;90.20;;;;;;4970422;28;20027;-85
2022/05/16 12:19:48;;;;;;;3.72;3.00;;;23.70;88.80;;;;;;4990165;28;20061;-84
2022/05/16 12:22:22;;;;;;;3.78;3.13;;;23.70;88.20;;;;;;4981302;28;20500;-86
2022/05/16 12:24:51;;;;;;;3.67;3.15;;;23.70;85.80;;;;;;5000421;28;20027;-85
2022/05/16 12:27:30;;;;;;;2.88;2.58;;;23.70;86.80;;;;;;4998014;28;20034;-86
2022/05/16 12:30:01;;;;;;;4.30;3.05;;;23.60;85.20;;;;;;4981242;28;20724;-85
2022/05/16 12:32:30;;;;;;;7.00;2.88;;;23.60;87.20;;;;;;4966897;28;20041;-86
2022/05/16 12:35:12;;;;;;;6.40;2.85;;;23.60;85.80;;;;;;5006173;28;20049;-86
2022/05/16 12:37:38;;;;;;;5.47;2.85;;;23.50;85.60;;;;;;4977358;28;20038;-87
2022/05/16 12:40:25;;;;;;;4.32;3.20;;;23.60;87.50;;;;;;4995377;28;20031;-86
2022/05/16 12:43:13;;;;;;;4.80;2.63;;;23.60;79.70;;;;;;4986829;28;20034;-87
2022/05/16 12:45:48;;;;;;;5.28;3.03;;;23.70;78.60;;;;;;4990954;28;20037;-87
2022/05/16 12:48:38;;;;;;;4.87;3.10;;;23.90;85.00;;;;;;4985014;28;20025;-86
2022/05/16 12:51:31;;;;;;;3.05;2.70;;;24.10;85.40;;;;;;4984349;28;20033;-85
2022/05/16 12:54:06;;;;;;;5.95;2.97;;;24.20;83.90;;;;;;4979384;28;20038;-84
2022/05/16 12:56:49;;;;;;;4.30;2.70;;;24.30;82.60;;;;;;4992447;28;20030;-86
2022/05/16 12:59:50;;;;;;;3.65;2.50;;;24.40;78.80;;;;;;4982361;28;20057;-86
2022/05/16 13:02:36;;;;;;;3.22;2.60;;;24.40;78.80;;;;;;4983264;28;20034;-86
2022/05/16 13:05:34;;;;;;;3.22;2.80;;;24.40;82.10;;;;;;5003660;28;20034;-86
2022/05/16 13:08:26;;;;;;;4.22;2.90;;;24.40;76.40;;;;;;4944925;28;20038;-85
2022/05/16 13:10:56;;;;;;;5.75;2.92;;;24.30;79.40;;;;;;4994281;28;20433;-85
2022/05/16 13:13:34;;;;;;;3.28;2.97;;;24.20;78.30;;;;;;4995856;28;20034;-86
2022/05/16 13:16:36;;;;;;;5.13;3.00;;;24.30;81.10;;;;;;4984652;28;20045;-86
2022/05/16 13:19:11;;;;;;;3.80;2.50;;;24.50;79.40;;;;;;4996905;28;20543;-85
2022/05/16 13:21:56;;;;;;;4.43;3.42;;;24.60;79.90;;;;;;4972644;28;20033;-86
2022/05/16 13:24:24;;;;;;;6.05;3.58;;;24.70;80.70;;;;;;4977269;28;20051;-85
2022/05/16 13:29:38;;;;;;;4.72;3.17;;;24.60;79.20;;;;;;4987011;28;20030;-85
2022/05/16 13:32:14;;;;;;;5.25;3.22;;;24.70;74.80;;;;;;4986690;28;20039;-86
2022/05/16 13:34:46;;;;;;;;;;;24.60;74.50;;;;;;4993414;28;20034;-86
2022/05/16 13:37:16;;;;;;;4.60;3.13;;;24.60;76.50;;;;;;4989746;28;19909;-84
2022/05/16 13:39:44;;;;;;;5.40;3.30;;;24.80;76.80;;;;;;5006360;28;20033;-84
2022/05/16 13:42:11;;;;;;;7.28;3.10;;;25.00;73.80;;;;;;5000347;28;20022;-86
2022/05/16 13:44:47;;;;;;;3.15;2.85;;;25.20;73.00;;;;;;4979394;28;20074;-86
2022/05/16 13:47:15;;;;;;;5.05;3.15;;;25.30;77.30;;;;;;4979519;28;20022;-86
2022/05/16 13:49:42;;;;;;;4.60;3.55;;;25.50;72.00;;;;;;5001518;28;20113;-87